DFFD/OUA METAR and TAF weather

Enter ICAO airport designator
Station Type Date Time Source
DFFD METAR 2018/04/21 11:00 UTC NOAA

DFFD 211100Z 00000KT CAVOK 37/18 Q1011 NOSIG


Station Type Date Time Source
DFFD Decoded METAR 2018/04/21 11:00 UTC NOAA

Ouagadougou, Burkina Faso (DFFD) 12-21N 001-31W 306M
Apr 21, 2018 - 07:00 AM EDT / 2018.04.21 1100 UTC
Wind: Calm:0
Visibility: greater than 7 mile(s):0
Temperature: 98 F (37 C)
Heat index: 100.0 F (37.8 C):1
Dew Point: 64 F (18 C)
Relative Humidity: 32%
Pressure (altimeter): 29.85 in. Hg (1011 hPa)
ob: DFFD 211100Z 00000KT CAVOK 37/18 Q1011 NOSIG
cycle: 11

Station Type Date Time Source
DFFD TAF 2018/04/21 12:23 UTC NOAA

TAF DFFD 211100Z 2112/2218 VRB08KT 8000 NSC
TEMPO 2116/2204 TS FEW026 FEW040CB
TEMPO 2215/2218 TS FEW026 FEW040CB


Example: see airport list